Time;durP1;ratioP1;P1;durP2;ratioP2;P2;SDS_P1;SDS_P2;PMS_P1;PMS_P2;Temp;Humidity;BMP_temperature;BMP_pressure;BME280_temperature;BME280_humidity;BME280_pressure;Samples;Min_cycle;Max_cycle;Signal;HPM_P1;HPM_P2
2023/08/17 00:01:34;;;;;;;780.50;748.28;;;21.90;93.10;;;;;;5036784;28;20168;-91
2023/08/17 00:04:00;;;;;;;762.85;732.65;;;21.70;95.60;;;;;;5037183;28;20205;-91
2023/08/17 00:06:25;;;;;;;762.53;731.95;;;21.60;96.70;;;;;;5035255;28;20204;-90
2023/08/17 00:08:51;;;;;;;739.15;709.75;;;21.60;96.80;;;;;;5036516;28;20243;-92
2023/08/17 00:11:17;;;;;;;771.97;741.25;;;21.60;96.90;;;;;;5037123;28;20200;-91
2023/08/17 00:13:42;;;;;;;764.65;734.35;;;21.40;98.40;;;;;;5036402;28;20187;-92
2023/08/17 00:16:08;;;;;;;748.08;718.50;;;21.30;98.80;;;;;;5040458;28;20219;-94
2023/08/17 00:18:34;;;;;;;768.05;736.65;;;21.20;99.70;;;;;;5047471;28;20200;-93
2023/08/17 00:21:00;;;;;;;727.75;699.70;;;21.10;99.90;;;;;;5049299;28;20212;-92
2023/08/17 00:23:25;;;;;;;727.10;699.33;;;21.20;99.90;;;;;;5031268;28;20350;-92
2023/08/17 00:25:51;;;;;;;716.03;688.97;;;21.30;98.70;;;;;;5038889;28;20193;-91
2023/08/17 00:28:17;;;;;;;721.88;694.13;;;21.30;98.30;;;;;;5040626;28;20188;-91
2023/08/17 00:30:42;;;;;;;731.30;703.58;;;21.30;98.30;;;;;;5040329;28;20247;-92
2023/08/17 00:33:08;;;;;;;728.95;701.05;;;21.20;99.10;;;;;;5041132;28;20176;-92
2023/08/17 00:35:33;;;;;;;719.92;692.60;;;21.20;99.50;;;;;;5043216;28;20207;-92
2023/08/17 00:37:59;;;;;;;714.13;686.95;;;21.20;99.10;;;;;;5042316;28;20232;-92
2023/08/17 00:40:25;;;;;;;753.80;723.63;;;21.30;98.10;;;;;;5042690;28;20168;-92
2023/08/17 00:42:51;;;;;;;787.20;755.15;;;21.50;97.50;;;;;;5042298;28;20208;-91
2023/08/17 00:45:18;;;;;;;776.08;744.45;;;21.40;97.70;;;;;;5042214;28;20200;-93
2023/08/17 00:47:45;;;;;;;787.33;754.33;;;21.40;97.60;;;;;;5042669;28;20176;-91
2023/08/17 00:50:12;;;;;;;801.15;767.85;;;21.50;97.70;;;;;;5041632;28;20185;-94
2023/08/17 00:52:38;;;;;;;780.22;747.80;;;21.40;97.40;;;;;;5040012;28;20200;-92
2023/08/17 00:55:05;;;;;;;749.45;718.80;;;21.30;98.40;;;;;;5041486;28;20716;-92
2023/08/17 00:57:32;;;;;;;784.90;752.40;;;21.20;98.60;;;;;;5041255;28;20256;-91
2023/08/17 00:59:59;;;;;;;797.92;764.45;;;21.30;97.60;;;;;;5040864;28;20244;-91
2023/08/17 01:02:25;;;;;;;795.30;762.17;;;21.40;97.10;;;;;;5041429;28;20267;-92
2023/08/17 01:04:50;;;;;;;778.83;746.58;;;21.30;97.20;;;;;;5040971;28;20195;-92
2023/08/17 01:07:16;;;;;;;784.78;752.67;;;21.30;97.50;;;;;;5040618;28;20196;-92
2023/08/17 01:09:42;;;;;;;751.30;721.65;;;21.20;97.80;;;;;;5039494;28;20582;-91
2023/08/17 01:12:31;;;;;;;745.35;716.30;;;21.00;99.00;;;;;;5039196;28;20276;-93
2023/08/17 01:15:17;;;;;;;739.83;711.45;;;20.90;99.90;;;;;;5038553;28;20724;-92
2023/08/17 01:18:03;;;;;;;726.58;698.80;;;20.90;99.90;;;;;;5038918;28;20172;-93
2023/08/17 01:20:30;;;;;;;714.38;687.60;;;20.90;99.90;;;;;;5038938;28;20165;-91
2023/08/17 01:23:09;;;;;;;708.80;682.15;;;20.90;99.90;;;;;;5039034;28;20165;-91
2023/08/17 01:25:36;;;;;;;744.60;715.55;;;20.90;99.20;;;;;;5044711;28;20196;-93
2023/08/17 01:28:02;;;;;;;780.70;748.25;;;20.60;99.90;;;;;;5046393;28;20200;-93
2023/08/17 01:30:33;;;;;;;793.33;759.70;;;20.40;99.90;;;;;;5046138;28;20388;-91
2023/08/17 01:33:08;;;;;;;781.45;749.55;;;20.40;99.90;;;;;;5042121;28;20193;-92
2023/08/17 01:35:38;;;;;;;777.78;745.60;;;20.40;99.90;;;;;;5039708;28;20239;-92
2023/08/17 01:38:09;;;;;;;762.67;731.63;;;20.40;99.90;;;;;;5039355;28;20165;-91
2023/08/17 01:40:35;;;;;;;769.50;737.85;;;20.40;99.90;;;;;;5040394;28;20193;-92
2023/08/17 01:43:04;;;;;;;764.65;733.92;;;20.30;99.90;;;;;;5040101;28;20191;-92
2023/08/17 01:45:30;;;;;;;765.08;733.38;;;20.20;99.90;;;;;;5039135;28;20570;-91
2023/08/17 01:47:56;;;;;;;768.40;737.42;;;20.30;99.90;;;;;;5037070;28;20694;-92
2023/08/17 01:50:21;;;;;;;756.22;725.75;;;20.40;99.90;;;;;;5040384;28;20176;-91
2023/08/17 01:52:47;;;;;;;771.58;740.13;;;20.40;99.90;;;;;;5040736;28;20220;-90
2023/08/17 01:55:13;;;;;;;760.42;729.08;;;20.50;99.90;;;;;;5037806;28;20271;-93
2023/08/17 01:57:38;;;;;;;773.28;741.40;;;20.50;99.90;;;;;;5039739;28;20165;-92
2023/08/17 02:00:05;;;;;;;765.53;734.58;;;20.30;99.90;;;;;;5041175;28;20169;-92
2023/08/17 02:02:31;;;;;;;776.00;744.38;;;20.20;99.90;;;;;;5043745;28;20158;-92
2023/08/17 02:04:57;;;;;;;763.53;732.63;;;20.20;99.90;;;;;;5038776;28;20223;-92
2023/08/17 02:07:22;;;;;;;747.15;717.80;;;20.10;99.90;;;;;;5038590;28;20275;-92
2023/08/17 02:09:48;;;;;;;719.72;692.53;;;20.00;99.90;;;;;;5069216;28;20368;-92
2023/08/17 02:12:14;;;;;;;710.90;684.40;;;19.90;99.90;;;;;;5026782;28;20712;-92
2023/08/17 02:14:39;;;;;;;737.00;708.20;;;19.90;99.90;;;;;;5016818;28;20193;-92
2023/08/17 02:17:05;;;;;;;731.22;702.92;;;20.10;99.90;;;;;;5018021;28;20323;-92
2023/08/17 02:19:32;;;;;;;732.58;704.25;;;20.20;99.90;;;;;;5018693;28;20398;-92
2023/08/17 02:21:58;;;;;;;710.70;683.17;;;20.00;99.90;;;;;;5025094;28;20177;-92
2023/08/17 02:24:24;;;;;;;728.28;700.30;;;19.90;99.90;;;;;;5035739;28;20849;-92
2023/08/17 02:26:50;;;;;;;730.10;702.15;;;20.00;99.90;;;;;;5036498;28;20208;-90
2023/08/17 02:29:16;;;;;;;757.70;727.58;;;20.10;99.90;;;;;;5035449;28;20177;-91
2023/08/17 02:31:41;;;;;;;736.40;708.00;;;20.10;99.90;;;;;;5037410;28;20173;-91
2023/08/17 02:34:07;;;;;;;739.65;710.75;;;20.10;99.90;;;;;;5037424;28;20173;-92
2023/08/17 02:36:33;;;;;;;715.08;688.17;;;20.00;99.90;;;;;;5037748;28;20193;-92
2023/08/17 02:38:59;;;;;;;689.47;664.05;;;19.90;99.90;;;;;;5039711;28;20178;-91
2023/08/17 02:41:24;;;;;;;688.55;663.25;;;19.80;99.90;;;;;;5037661;28;20201;-91
2023/08/17 02:43:50;;;;;;;679.10;654.50;;;19.80;99.90;;;;;;5038408;28;20189;-92
2023/08/17 02:46:16;;;;;;;653.50;630.30;;;19.80;99.90;;;;;;5038481;28;20208;-92
2023/08/17 02:48:41;;;;;;;642.30;619.63;;;19.80;99.90;;;;;;5053433;28;20243;-91
2023/08/17 02:51:07;;;;;;;609.63;588.60;;;19.70;99.90;;;;;;5038525;28;20237;-93
2023/08/17 02:53:33;;;;;;;586.80;567.08;;;19.70;99.90;;;;;;5038829;28;20187;-92
2023/08/17 02:55:58;;;;;;;564.25;545.35;;;19.60;99.90;;;;;;5037496;28;20737;-91
2023/08/17 02:58:24;;;;;;;575.13;555.97;;;19.70;99.90;;;;;;5037621;28;20153;-91
2023/08/17 03:00:53;;;;;;;572.83;553.80;;;19.70;99.90;;;;;;5037302;28;20165;-92
2023/08/17 03:03:19;;;;;;;559.92;541.55;;;19.70;99.90;;;;;;5037109;28;20208;-91
2023/08/17 03:05:44;;;;;;;573.75;554.67;;;19.70;99.90;;;;;;5036325;28;20842;-91
2023/08/17 03:08:10;;;;;;;551.13;533.03;;;19.60;99.90;;;;;;5035934;28;20243;-91
2023/08/17 03:10:37;;;;;;;557.38;539.03;;;19.60;99.90;;;;;;5035936;28;20838;-93
2023/08/17 03:13:03;;;;;;;509.77;493.40;;;19.40;99.90;;;;;;5037921;28;20181;-91
2023/08/17 03:15:29;;;;;;;474.25;459.63;;;19.40;99.90;;;;;;5036451;28;20220;-92
2023/08/17 03:17:55;;;;;;;467.30;452.52;;;19.40;99.90;;;;;;5034707;28;20173;-92
2023/08/17 03:20:20;;;;;;;452.65;438.48;;;19.40;99.90;;;;;;5036724;28;20181;-92
2023/08/17 03:22:46;;;;;;;457.00;443.00;;;19.50;99.90;;;;;;5035631;28;20169;-91
2023/08/17 03:25:11;;;;;;;483.73;468.52;;;19.60;99.90;;;;;;5035755;28;20231;-90
2023/08/17 03:27:37;;;;;;;490.42;475.30;;;19.60;99.90;;;;;;5036423;28;20429;-91
2023/08/17 03:30:04;;;;;;;481.60;466.52;;;19.70;99.90;;;;;;5036227;28;20189;-92
2023/08/17 03:32:30;;;;;;;481.80;466.73;;;19.60;99.90;;;;;;5036499;28;20193;-91
2023/08/17 03:34:55;;;;;;;438.92;425.58;;;19.60;99.90;;;;;;5036727;28;20208;-91
2023/08/17 03:37:21;;;;;;;465.38;450.98;;;19.50;99.90;;;;;;5037939;28;20231;-91
2023/08/17 03:39:47;;;;;;;453.35;439.23;;;19.50;99.90;;;;;;5036874;28;20180;-90
2023/08/17 03:42:12;;;;;;;439.05;425.60;;;19.50;99.90;;;;;;5037852;28;20165;-92
2023/08/17 03:44:38;;;;;;;472.30;457.55;;;19.50;99.90;;;;;;5037178;28;20171;-91
2023/08/17 03:47:03;;;;;;;526.72;509.38;;;19.30;99.90;;;;;;5038456;28;20173;-90
2023/08/17 03:49:29;;;;;;;554.92;536.40;;;19.40;99.90;;;;;;5039263;28;20207;-92
2023/08/17 03:51:55;;;;;;;581.20;561.58;;;19.40;99.90;;;;;;5038141;28;20227;-91
2023/08/17 03:54:20;;;;;;;580.88;560.63;;;19.40;99.90;;;;;;5045822;28;20196;-91
2023/08/17 03:56:46;;;;;;;664.63;640.53;;;19.40;99.90;;;;;;5043959;28;20646;-91
2023/08/17 03:59:12;;;;;;;691.10;665.00;;;19.30;99.90;;;;;;5046751;28;20160;-90
2023/08/17 04:01:37;;;;;;;696.75;670.20;;;19.30;99.90;;;;;;5044495;28;20176;-90
2023/08/17 04:04:03;;;;;;;681.92;656.13;;;19.30;99.90;;;;;;5039054;28;20181;-91
2023/08/17 04:06:30;;;;;;;694.47;667.90;;;19.40;99.90;;;;;;5036027;28;20274;-92
2023/08/17 04:08:56;;;;;;;751.38;720.97;;;19.40;99.90;;;;;;5038592;28;20455;-92
2023/08/17 04:11:21;;;;;;;774.08;742.75;;;19.40;99.90;;;;;;5038482;28;20730;-91
2023/08/17 04:13:47;;;;;;;791.08;758.20;;;19.40;99.90;;;;;;5038234;28;20733;-91
2023/08/17 04:16:13;;;;;;;871.53;831.92;;;19.40;99.90;;;;;;5020690;28;20210;-91
2023/08/17 04:18:38;;;;;;;862.83;822.00;;;19.40;99.90;;;;;;5018488;28;20166;-91
2023/08/17 04:21:04;;;;;;;894.25;851.92;;;19.40;99.90;;;;;;5018250;28;20158;-91
2023/08/17 04:23:29;;;;;;;908.53;865.47;;;19.40;99.90;;;;;;5017960;28;20249;-92
2023/08/17 04:25:55;;;;;;;884.88;842.90;;;19.50;99.90;;;;;;5023637;28;20204;-91
2023/08/17 04:28:21;;;;;;;887.38;845.17;;;19.40;99.90;;;;;;5037411;28;20182;-90
2023/08/17 04:30:46;;;;;;;900.70;857.15;;;19.40;99.90;;;;;;5037938;28;20173;-91
2023/08/17 04:33:12;;;;;;;893.53;850.65;;;19.50;99.90;;;;;;5037932;28;20176;-93
2023/08/17 04:35:38;;;;;;;926.15;879.90;;;19.40;99.90;;;;;;5038193;28;20201;-91
2023/08/17 04:38:04;;;;;;;926.65;880.33;;;19.50;99.90;;;;;;5039456;28;20173;-91
2023/08/17 04:40:30;;;;;;;922.25;877.70;;;19.50;99.90;;;;;;5037372;28;20165;-91
2023/08/17 04:42:56;;;;;;;912.47;867.88;;;19.50;99.90;;;;;;5038111;28;20228;-92
2023/08/17 04:45:22;;;;;;;933.40;887.20;;;19.50;99.90;;;;;;5039224;28;20617;-92
2023/08/17 04:47:49;;;;;;;922.38;877.58;;;19.40;99.90;;;;;;5047558;28;20205;-92
2023/08/17 04:50:16;;;;;;;892.63;849.60;;;19.50;99.90;;;;;;5047549;28;20173;-91
2023/08/17 04:52:43;;;;;;;905.53;861.60;;;19.40;99.90;;;;;;5043104;28;20165;-90
2023/08/17 04:55:09;;;;;;;906.63;863.45;;;19.40;99.90;;;;;;5039711;28;20714;-92
2023/08/17 04:57:34;;;;;;;876.92;834.78;;;19.40;99.90;;;;;;5039022;28;20192;-90
2023/08/17 05:00:00;;;;;;;930.58;885.08;;;19.50;99.90;;;;;;5037967;28;20172;-93
2023/08/17 05:02:26;;;;;;;904.88;860.30;;;19.60;99.90;;;;;;5038855;28;20161;-92
2023/08/17 05:04:51;;;;;;;902.22;859.35;;;19.60;99.90;;;;;;5038722;28;20360;-91
2023/08/17 05:07:17;;;;;;;888.25;846.65;;;19.50;99.90;;;;;;5037181;28;20659;-90
2023/08/17 05:09:43;;;;;;;886.03;844.30;;;19.50;99.90;;;;;;5036895;28;20188;-91
2023/08/17 05:12:08;;;;;;;895.58;852.30;;;19.50;99.90;;;;;;5037665;28;20271;-92
2023/08/17 05:14:34;;;;;;;873.85;833.13;;;19.60;99.90;;;;;;5038957;28;20189;-92
2023/08/17 05:16:59;;;;;;;840.25;802.33;;;19.50;99.90;;;;;;5039360;28;20197;-92
2023/08/17 05:19:25;;;;;;;869.33;829.75;;;19.50;99.90;;;;;;5039066;28;20161;-93
2023/08/17 05:21:51;;;;;;;869.20;829.33;;;19.60;99.90;;;;;;5036697;28;20520;-92
2023/08/17 05:24:17;;;;;;;856.25;817.25;;;19.60;99.90;;;;;;5037983;28;20161;-90
2023/08/17 05:26:43;;;;;;;865.90;826.47;;;19.70;99.90;;;;;;5032663;28;20201;-92
2023/08/17 05:29:09;;;;;;;879.13;838.30;;;19.90;99.90;;;;;;5019565;28;20208;-92
2023/08/17 05:31:34;;;;;;;855.28;816.35;;;19.90;99.90;;;;;;5026143;28;20212;-91
2023/08/17 05:34:00;;;;;;;843.65;806.72;;;19.80;99.90;;;;;;5042112;28;20204;-91
2023/08/17 05:36:25;;;;;;;808.30;773.65;;;19.70;99.90;;;;;;5039683;28;20204;-91
2023/08/17 05:38:51;;;;;;;795.85;762.42;;;19.60;99.90;;;;;;5038745;28;20244;-91
2023/08/17 05:41:17;;;;;;;765.83;733.80;;;19.60;99.90;;;;;;5038475;28;20701;-92
2023/08/17 05:43:43;;;;;;;796.45;763.45;;;19.70;99.90;;;;;;5040107;28;20189;-90
2023/08/17 05:46:08;;;;;;;800.65;767.08;;;19.70;99.90;;;;;;5040526;28;20197;-92
2023/08/17 05:48:34;;;;;;;797.10;763.47;;;19.80;99.90;;;;;;5040135;28;20191;-91
2023/08/17 05:51:00;;;;;;;795.13;761.20;;;19.90;99.90;;;;;;5041298;28;20173;-91
2023/08/17 05:53:25;;;;;;;801.85;768.30;;;19.90;99.90;;;;;;5033853;28;20213;-91
2023/08/17 05:55:51;;;;;;;820.08;785.17;;;19.90;99.90;;;;;;5025947;28;20453;-91
2023/08/17 05:58:16;;;;;;;823.90;788.45;;;19.90;99.90;;;;;;5024799;28;20188;-92
2023/08/17 06:00:42;;;;;;;836.25;799.58;;;20.10;99.90;;;;;;5028039;28;20257;-92
2023/08/17 06:03:08;;;;;;;863.70;824.30;;;20.10;99.90;;;;;;4977333;28;20326;-93
2023/08/17 06:05:34;;;;;;;880.78;839.72;;;20.10;99.90;;;;;;5038795;28;20744;-91
2023/08/17 06:08:00;;;;;;;892.42;850.22;;;20.20;99.90;;;;;;5027004;28;20329;-91
2023/08/17 06:10:26;;;;;;;859.67;820.70;;;20.10;99.90;;;;;;5028561;28;20189;-91
2023/08/17 06:12:56;;;;;;;909.00;865.38;;;20.10;99.90;;;;;;5027335;28;20200;-92
2023/08/17 06:15:22;;;;;;;895.17;852.33;;;20.20;99.90;;;;;;5024893;28;20586;-92
2023/08/17 06:17:51;;;;;;;927.03;881.35;;;20.20;99.90;;;;;;5028568;28;20603;-90
2023/08/17 06:20:17;;;;;;;919.38;873.80;;;20.20;99.90;;;;;;5027502;28;20193;-90
2023/08/17 06:22:43;;;;;;;945.05;896.72;;;20.30;99.90;;;;;;5024687;28;20207;-91
2023/08/17 06:25:09;;;;;;;914.65;869.47;;;20.30;99.90;;;;;;5027718;28;20690;-90
2023/08/17 06:27:36;;;;;;;944.13;896.92;;;20.30;99.90;;;;;;5027144;28;20185;-91
2023/08/17 06:30:03;;;;;;;954.90;905.83;;;20.30;99.90;;;;;;5022033;28;20248;-90
2023/08/17 06:32:29;;;;;;;987.60;933.83;;;20.30;99.90;;;;;;5026614;28;21079;-92
2023/08/17 06:34:55;;;;;;;955.80;906.72;;;20.30;99.90;;;;;;5028274;28;20630;-90
2023/08/17 06:37:20;;;;;;;989.88;937.38;;;20.30;99.90;;;;;;5024725;28;20204;-92
2023/08/17 06:39:46;;;;;;;946.88;897.78;;;20.30;99.90;;;;;;5025614;28;20696;-92
2023/08/17 06:42:11;;;;;;;943.60;895.33;;;20.30;99.90;;;;;;5026833;28;20193;-91
2023/08/17 06:44:37;;;;;;;944.67;896.65;;;20.30;99.90;;;;;;5024891;28;20223;-89
2023/08/17 06:47:03;;;;;;;957.47;907.08;;;20.30;99.90;;;;;;5029044;28;20185;-91
2023/08/17 06:49:30;;;;;;;1015.55;958.00;;;20.40;99.90;;;;;;5025060;28;20201;-91
2023/08/17 06:51:55;;;;;;;1268.43;974.13;;;20.60;99.90;;;;;;5024727;28;20199;-90
2023/08/17 06:54:21;;;;;;;1496.25;966.30;;;20.60;99.90;;;;;;5023418;28;20198;-91
2023/08/17 06:56:46;;;;;;;1999.90;999.90;;;20.70;99.90;;;;;;5024958;28;20408;-93
2023/08/17 06:59:12;;;;;;;1999.90;999.90;;;20.70;99.90;;;;;;5022477;28;20249;-90
2023/08/17 07:01:37;;;;;;;1999.90;999.90;;;20.70;99.90;;;;;;5029722;28;20189;-90
2023/08/17 07:04:03;;;;;;;1999.90;999.90;;;20.80;99.90;;;;;;5024625;28;20184;-91
2023/08/17 07:06:29;;;;;;;1999.90;999.90;;;20.90;99.90;;;;;;5023107;28;20212;-90
2023/08/17 07:08:55;;;;;;;1999.90;999.90;;;20.90;99.90;;;;;;4950915;28;20234;-92
2023/08/17 07:11:20;;;;;;;1999.90;999.90;;;20.90;99.90;;;;;;5028680;28;20198;-91
2023/08/17 07:13:46;;;;;;;1999.90;999.90;;;20.90;99.90;;;;;;5021001;28;20276;-91
2023/08/17 07:16:12;;;;;;;1999.90;999.90;;;21.00;99.90;;;;;;5024225;28;20221;-91
2023/08/17 07:20:59;;;;;;;1999.90;999.90;;;21.00;99.90;;;;;;4843221;28;20602;-85
2023/08/17 07:23:24;;;;;;;1999.90;999.90;;;20.90;99.90;;;;;;4953611;28;20292;-86
2023/08/17 07:25:50;;;;;;;1999.90;999.90;;;20.90;99.90;;;;;;5010274;28;20235;-84
2023/08/17 07:28:16;;;;;;;1999.90;999.90;;;20.90;99.90;;;;;;4991383;28;20183;-85
2023/08/17 07:30:41;;;;;;;1999.90;999.90;;;21.00;99.90;;;;;;5001628;28;20266;-85
2023/08/17 07:33:07;;;;;;;1999.90;999.90;;;21.00;99.90;;;;;;4996336;28;20608;-86
2023/08/17 07:35:33;;;;;;;1999.90;999.90;;;21.10;99.90;;;;;;4995453;28;20189;-85
2023/08/17 07:38:00;;;;;;;1999.90;999.90;;;21.30;99.90;;;;;;4995865;28;20224;-85
2023/08/17 07:40:25;;;;;;;1999.90;999.90;;;21.40;99.90;;;;;;4995397;28;20206;-86
2023/08/17 07:42:51;;;;;;;1999.90;999.90;;;21.40;99.90;;;;;;4992673;28;20216;-86
2023/08/17 07:45:16;;;;;;;1999.90;999.90;;;21.60;99.90;;;;;;5005673;28;21109;-86
2023/08/17 07:47:42;;;;;;;1999.90;999.90;;;21.60;99.90;;;;;;4999159;28;20181;-85
2023/08/17 07:50:08;;;;;;;1999.90;999.90;;;21.60;99.90;;;;;;4994769;28;20283;-85
2023/08/17 07:52:34;;;;;;;1999.90;999.90;;;21.50;99.90;;;;;;5000375;28;20205;-85
2023/08/17 07:55:00;;;;;;;1999.90;999.90;;;21.50;99.90;;;;;;4994011;28;20185;-85
2023/08/17 07:57:25;;;;;;;1999.90;999.90;;;21.50;99.90;;;;;;4998877;28;20301;-85
2023/08/17 07:59:51;;;;;;;1999.90;999.90;;;21.30;99.90;;;;;;4992759;28;20238;-84
2023/08/17 08:02:17;;;;;;;1999.90;999.90;;;21.40;99.90;;;;;;4996518;28;20200;-84
2023/08/17 08:04:43;;;;;;;1999.90;999.90;;;21.60;99.90;;;;;;4990596;28;20181;-85
2023/08/17 08:07:09;;;;;;;1999.90;999.90;;;21.70;99.90;;;;;;4999808;28;20324;-85
2023/08/17 08:09:35;;;;;;;1999.90;999.90;;;21.80;99.90;;;;;;4986213;28;20268;-86
2023/08/17 08:12:01;;;;;;;1999.90;999.90;;;22.00;99.90;;;;;;4995187;28;20884;-85
2023/08/17 08:14:26;;;;;;;1999.90;999.90;;;22.10;99.90;;;;;;4999328;28;20217;-86
2023/08/17 08:16:52;;;;;;;1999.90;999.90;;;22.40;99.90;;;;;;4999220;28;20186;-86
2023/08/17 08:19:17;;;;;;;1999.90;999.90;;;22.30;99.90;;;;;;4989780;28;20217;-85
2023/08/17 08:21:43;;;;;;;1999.90;999.90;;;22.20;99.90;;;;;;4999004;28;20194;-85
2023/08/17 08:24:09;;;;;;;1999.90;999.90;;;22.30;99.90;;;;;;4996147;28;20212;-86
2023/08/17 08:26:34;;;;;;;1999.90;999.90;;;22.60;99.60;;;;;;5010108;28;20188;-86
2023/08/17 08:29:00;;;;;;;1999.90;999.90;;;22.80;98.30;;;;;;4995745;28;20256;-87
2023/08/17 08:31:26;;;;;;;1999.90;999.90;;;22.80;98.00;;;;;;4989893;28;20269;-86
2023/08/17 08:33:52;;;;;;;1999.90;999.90;;;22.60;98.40;;;;;;4985476;28;20218;-86
2023/08/17 08:36:18;;;;;;;1999.90;999.90;;;22.60;99.60;;;;;;4986862;28;20210;-85
2023/08/17 08:38:44;;;;;;;1999.90;999.90;;;22.70;98.70;;;;;;4996900;28;20269;-86
2023/08/17 08:41:12;;;;;;;1999.90;999.90;;;22.80;97.80;;;;;;4984745;28;20963;-86
2023/08/17 08:43:38;;;;;;;1999.90;999.90;;;22.70;97.70;;;;;;4983844;28;20209;-86
2023/08/17 08:46:05;;;;;;;1999.90;999.90;;;22.60;98.40;;;;;;4994117;28;20165;-83
2023/08/17 08:48:32;;;;;;;1999.90;999.90;;;22.60;99.00;;;;;;4977943;28;20186;-85
2023/08/17 08:51:00;;;;;;;1999.90;999.90;;;22.80;97.50;;;;;;4989409;28;20194;-85
2023/08/17 08:53:37;;;;;;;1999.90;999.90;;;23.00;97.30;;;;;;4985055;28;20210;-86
2023/08/17 08:56:03;;;;;;;1999.90;999.90;;;23.10;95.30;;;;;;4979241;28;20890;-86
2023/08/17 08:58:31;;;;;;;1999.90;999.90;;;23.00;96.40;;;;;;4980115;28;20218;-86
2023/08/17 09:00:58;;;;;;;1999.90;999.90;;;23.00;95.20;;;;;;4985374;28;20233;-84
2023/08/17 09:03:25;;;;;;;1999.90;999.90;;;23.00;95.60;;;;;;4980166;28;20214;-87
2023/08/17 09:05:51;;;;;;;1999.90;999.90;;;23.00;94.90;;;;;;4979654;28;20545;-84
2023/08/17 09:08:22;;;;;;;1999.90;999.90;;;22.80;96.20;;;;;;4976241;28;20170;-85
2023/08/17 09:10:49;;;;;;;1999.90;999.90;;;22.70;96.80;;;;;;4998035;28;20190;-86
2023/08/17 09:13:15;;;;;;;1999.90;999.90;;;22.90;96.30;;;;;;4977684;28;20209;-85
2023/08/17 09:15:41;;;;;;;1999.90;999.90;;;23.30;95.00;;;;;;4982244;28;20243;-86
2023/08/17 09:18:07;;;;;;;1999.90;999.90;;;23.60;91.80;;;;;;4980419;28;20190;-86
2023/08/17 09:20:40;;;;;;;1999.90;999.90;;;23.70;91.40;;;;;;4983940;28;20225;-85
2023/08/17 09:23:17;;;;;;;1999.90;999.90;;;23.70;90.50;;;;;;4986716;28;20210;-85
2023/08/17 09:25:44;;;;;;;1999.90;999.90;;;24.10;90.00;;;;;;4986964;28;20272;-85
2023/08/17 09:28:15;;;;;;;1999.90;999.90;;;23.90;89.50;;;;;;4983989;28;20262;-90
2023/08/17 09:30:54;;;;;;;1999.90;999.90;;;23.60;90.80;;;;;;4990951;28;20771;-91
2023/08/17 09:33:25;;;;;;;1999.90;999.90;;;23.50;91.40;;;;;;4992069;28;20447;-91
2023/08/17 09:35:52;;;;;;;1999.90;999.90;;;23.90;91.80;;;;;;4991874;28;20178;-91
2023/08/17 09:38:19;;;;;;;1999.90;999.90;;;23.90;90.20;;;;;;4987458;28;20220;-91
2023/08/17 09:40:45;;;;;;;1999.90;999.90;;;24.00;89.10;;;;;;4990952;28;20722;-91
2023/08/17 09:43:12;;;;;;;1999.90;999.90;;;24.00;88.80;;;;;;5005161;28;20205;-92
2023/08/17 09:45:39;;;;;;;1999.90;999.90;;;24.30;88.00;;;;;;4985758;28;20865;-92
2023/08/17 09:48:09;;;;;;;1999.90;999.90;;;24.40;88.70;;;;;;4984330;28;20209;-91
2023/08/17 09:50:35;;;;;;;1999.90;999.90;;;24.50;87.80;;;;;;4996978;28;20185;-91
2023/08/17 09:53:04;;;;;;;1999.90;999.90;;;24.50;86.10;;;;;;4989312;28;20202;-92
2023/08/17 09:55:37;;;;;;;1999.90;999.90;;;24.60;86.70;;;;;;4989583;28;21037;-92
2023/08/17 09:58:03;;;;;;;1999.90;999.90;;;24.40;87.10;;;;;;4993168;28;20193;-92
2023/08/17 10:00:32;;;;;;;1999.90;999.90;;;24.70;86.50;;;;;;4995021;28;20214;-92
2023/08/17 10:03:01;;;;;;;1999.90;999.90;;;24.50;86.90;;;;;;4988956;28;20278;-91
2023/08/17 10:05:31;;;;;;;1999.90;999.90;;;24.70;86.80;;;;;;4992168;28;20214;-92
2023/08/17 10:07:59;;;;;;;1999.90;999.90;;;24.70;85.30;;;;;;4988852;28;20174;-91
2023/08/17 10:10:26;;;;;;;1999.90;999.90;;;24.90;84.50;;;;;;4993236;28;20205;-93
2023/08/17 10:13:19;;;;;;;1999.90;999.90;;;24.90;84.80;;;;;;4988438;28;20325;-91
2023/08/17 10:16:08;;;;;;;1999.90;999.90;;;25.00;84.30;;;;;;4995067;28;20210;-91
2023/08/17 10:19:01;;;;;;;1999.90;999.90;;;24.70;84.90;;;;;;4988602;28;20209;-92
2023/08/17 10:21:28;;;;;;;1999.90;999.90;;;24.70;85.30;;;;;;4993348;28;20222;-93
2023/08/17 10:23:57;;;;;;;1999.90;999.90;;;25.00;85.80;;;;;;4998369;28;20206;-93
2023/08/17 10:26:24;;;;;;;1999.90;999.90;;;25.20;83.30;;;;;;4992436;28;20381;-92
2023/08/17 10:28:51;;;;;;;1999.90;999.90;;;25.10;83.00;;;;;;4995382;28;20189;-92
2023/08/17 10:31:20;;;;;;;1999.90;999.90;;;25.60;82.00;;;;;;4997675;28;20174;-90
2023/08/17 10:33:47;;;;;;;1999.90;999.90;;;25.80;80.30;;;;;;4995939;28;20690;-92
2023/08/17 10:36:14;;;;;;;1999.90;999.90;;;25.90;77.70;;;;;;4995922;28;20200;-92
2023/08/17 10:38:40;;;;;;;1999.90;999.90;;;25.60;81.70;;;;;;5000707;28;20169;-92
2023/08/17 10:41:14;;;;;;;1999.90;999.90;;;25.60;81.30;;;;;;5017211;28;20292;-93
2023/08/17 10:43:59;;;;;;;1999.90;999.90;;;25.80;79.50;;;;;;4995775;28;20214;-92
2023/08/17 10:46:36;;;;;;;1999.90;999.90;;;25.90;77.70;;;;;;4999148;28;21038;-91
2023/08/17 10:49:24;;;;;;;1999.90;999.90;;;25.80;79.30;;;;;;4997787;28;20212;-91
2023/08/17 10:52:03;;;;;;;1999.90;999.90;;;25.70;79.50;;;;;;5009305;28;20214;-91
2023/08/17 10:54:37;;;;;;;1999.90;999.90;;;25.50;81.40;;;;;;5026200;28;20197;-91
2023/08/17 10:57:24;;;;;;;1999.90;999.90;;;25.50;81.10;;;;;;5005965;28;20174;-91
2023/08/17 11:00:27;;;;;;;1999.90;999.90;;;25.70;78.80;;;;;;4995526;28;20228;-92
2023/08/17 11:03:05;;;;;;;1999.90;999.90;;;25.50;80.80;;;;;;4999344;28;20205;-93
2023/08/17 11:05:58;;;;;;;1999.90;999.90;;;25.90;80.20;;;;;;5018015;28;20181;-94
2023/08/17 11:08:42;;;;;;;1999.90;999.90;;;25.90;77.80;;;;;;4999667;28;20605;-86
2023/08/17 11:11:15;;;;;;;1999.90;999.90;;;25.70;79.10;;;;;;4991159;28;20190;-88
2023/08/17 11:13:43;;;;;;;1999.90;999.90;;;25.80;79.40;;;;;;4987288;28;20304;-86
2023/08/17 11:16:10;;;;;;;1182.40;899.72;;;26.20;77.70;;;;;;4985427;28;20840;-87
2023/08/17 11:18:36;;;;;;;1999.90;999.90;;;26.30;76.70;;;;;;4975739;28;20317;-86
2023/08/17 11:21:03;;;;;;;1999.90;999.90;;;26.60;76.00;;;;;;4982905;28;20457;-88
2023/08/17 11:23:30;;;;;;;923.28;879.00;;;26.70;74.90;;;;;;4983327;28;20208;-89
2023/08/17 11:25:56;;;;;;;942.80;896.92;;;26.80;74.10;;;;;;4982913;28;20221;-87
2023/08/17 11:28:23;;;;;;;946.17;898.70;;;26.90;73.40;;;;;;4981895;28;20175;-85
2023/08/17 11:31:02;;;;;;;1001.30;949.00;;;27.50;72.90;;;;;;4984452;28;20293;-87
2023/08/17 11:33:29;;;;;;;993.13;940.80;;;28.40;70.00;;;;;;4980284;28;20209;-87
2023/08/17 11:35:55;;;;;;;972.58;922.85;;;28.00;70.80;;;;;;4979693;28;20281;-87
2023/08/17 11:38:21;;;;;;;1004.10;951.10;;;28.20;69.80;;;;;;4977534;28;20201;-86
2023/08/17 11:40:48;;;;;;;983.00;931.72;;;28.50;67.30;;;;;;4991902;28;20301;-86
2023/08/17 11:43:14;;;;;;;941.42;894.90;;;28.30;68.90;;;;;;4980850;28;20300;-88
2023/08/17 11:45:40;;;;;;;952.60;905.85;;;27.40;72.40;;;;;;4823931;28;20734;-87
2023/08/17 11:48:05;;;;;;;940.05;893.60;;;26.90;73.40;;;;;;4994329;28;20243;-86
2023/08/17 11:50:31;;;;;;;946.65;899.83;;;26.80;73.40;;;;;;4999243;28;20227;-88
2023/08/17 11:53:04;;;;;;;944.30;897.70;;;27.20;74.10;;;;;;5020734;28;20213;-89
2023/08/17 11:55:29;;;;;;;944.03;896.78;;;27.30;73.70;;;;;;5001789;28;20192;-87
2023/08/17 11:57:55;;;;;;;953.65;905.65;;;27.00;74.40;;;;;;5001353;28;20656;-88
2023/08/17 12:00:22;;;;;;;956.35;908.75;;;27.10;73.00;;;;;;5008808;28;20193;-87
2023/08/17 12:02:52;;;;;;;929.40;884.03;;;26.70;75.30;;;;;;5004511;28;20685;-88
2023/08/17 12:05:24;;;;;;;931.03;886.08;;;26.90;73.10;;;;;;5005141;28;20193;-87
2023/08/17 12:07:52;;;;;;;947.03;899.95;;;27.00;73.90;;;;;;5006345;28;20721;-83